createdAt,value
2017-10-29T00:01:52.961Z,14.63
2017-10-29T00:04:20.371Z,15.07
2017-10-29T00:06:48.546Z,11.93
2017-10-29T00:09:16.731Z,13.10
2017-10-29T00:11:44.151Z,10.13
2017-10-29T00:14:11.563Z,10.30
2017-10-29T00:16:38.970Z,9.27
2017-10-29T00:19:06.385Z,9.53
2017-10-29T00:21:33.802Z,7.63
2017-10-29T00:24:01.990Z,10.10
2017-10-29T00:26:29.406Z,8.37
2017-10-29T00:28:57.345Z,9.07
2017-10-29T00:31:24.767Z,9.43
2017-10-29T00:33:52.190Z,7.80
2017-10-29T00:36:20.408Z,7.93
2017-10-29T00:38:47.833Z,10.60
2017-10-29T00:41:16.036Z,10.97
2017-10-29T00:43:43.603Z,12.30
2017-10-29T00:46:11.067Z,15.57
2017-10-29T00:48:38.482Z,9.83
2017-10-29T00:51:06.695Z,20.80
2017-10-29T00:53:34.108Z,8.03
2017-10-29T00:56:02.320Z,18.40
2017-10-29T00:58:29.739Z,10.60
2017-10-29T01:00:57.928Z,12.43
2017-10-29T01:03:25.347Z,13.23
2017-10-29T01:05:52.763Z,17.87
2017-10-29T01:08:20.175Z,10.60
2017-10-29T01:10:48.358Z,13.37
2017-10-29T01:13:16.551Z,8.87
2017-10-29T01:15:43.971Z,13.60
2017-10-29T01:18:11.396Z,12.23
2017-10-29T01:20:38.827Z,16.93
2017-10-29T01:23:06.249Z,9.00
2017-10-29T01:25:34.453Z,13.20
2017-10-29T01:28:01.892Z,19.73
2017-10-29T01:30:30.083Z,14.50
2017-10-29T01:32:58.459Z,17.10
2017-10-29T01:35:25.890Z,13.37
2017-10-29T01:37:54.075Z,10.33
2017-10-29T01:40:21.484Z,12.07
2017-10-29T01:42:48.904Z,15.80
2017-10-29T01:45:16.339Z,10.70
2017-10-29T01:47:43.759Z,15.60
2017-10-29T01:50:11.172Z,15.67
2017-10-29T01:52:38.602Z,13.93
2017-10-29T01:55:06.796Z,9.13
2017-10-29T01:57:34.209Z,10.90
2017-10-29T02:00:02.227Z,17.70
2017-10-29T02:02:29.643Z,17.27
2017-10-29T02:04:57.826Z,13.57
2017-10-29T02:07:26.005Z,19.10
2017-10-29T02:09:54.190Z,13.87
2017-10-29T02:12:21.598Z,10.33
2017-10-29T02:14:49.702Z,10.27
2017-10-29T02:17:17.914Z,13.00
2017-10-29T02:19:45.331Z,9.70
2017-10-29T02:22:13.520Z,16.40
2017-10-29T02:24:40.934Z,14.63
2017-10-29T02:27:08.372Z,11.43
2017-10-29T02:29:35.780Z,24.70
2017-10-29T02:32:03.214Z,10.03
2017-10-29T02:34:31.413Z,12.80
2017-10-29T02:37:00.406Z,15.82
2017-10-29T02:39:28.578Z,17.57
2017-10-29T02:41:55.982Z,9.67
2017-10-29T02:44:23.412Z,15.20
2017-10-29T02:46:51.180Z,12.60
2017-10-29T02:49:18.601Z,11.60
2017-10-29T02:51:46.767Z,6.80
2017-10-29T02:54:14.952Z,8.73
2017-10-29T02:56:42.372Z,8.53
2017-10-29T02:59:09.777Z,13.50
2017-10-29T03:01:37.183Z,14.53
2017-10-29T03:04:04.599Z,20.43
2017-10-29T03:06:32.021Z,20.33
2017-10-29T03:09:01.014Z,19.92
2017-10-29T03:11:29.217Z,13.20
2017-10-29T03:13:57.375Z,18.07
2017-10-29T03:16:24.784Z,12.03
2017-10-29T03:18:52.222Z,21.50
2017-10-29T03:21:19.611Z,20.10
2017-10-29T03:23:47.027Z,16.73
2017-10-29T03:26:14.434Z,12.63
2017-10-29T03:28:42.647Z,20.90
2017-10-29T03:31:10.077Z,29.53
2017-10-29T03:33:38.245Z,24.17
2017-10-29T03:36:06.439Z,15.83
2017-10-29T03:38:33.851Z,20.97
2017-10-29T03:41:01.264Z,24.07
2017-10-29T03:43:28.692Z,18.00
2017-10-29T03:45:56.927Z,21.20
2017-10-29T03:48:24.329Z,24.73
2017-10-29T03:50:51.790Z,23.83
2017-10-29T03:53:19.216Z,19.33
2017-10-29T03:55:47.392Z,23.20
2017-10-29T03:58:15.580Z,24.87
2017-10-29T04:00:43.761Z,24.10
2017-10-29T04:03:11.179Z,19.67
2017-10-29T04:05:38.611Z,22.70
2017-10-29T04:08:06.033Z,29.50
2017-10-29T04:10:33.453Z,19.80
2017-10-29T04:13:02.381Z,25.70
2017-10-29T04:15:29.804Z,26.30
2017-10-29T04:17:57.208Z,26.20
2017-10-29T04:20:24.622Z,28.40
2017-10-29T04:22:52.801Z,26.90
2017-10-29T04:25:20.988Z,33.20
2017-10-29T04:27:48.399Z,33.73
2017-10-29T04:30:15.831Z,25.90
2017-10-29T04:32:43.254Z,22.40
2017-10-29T04:35:10.737Z,28.20
2017-10-29T04:37:38.143Z,30.47
2017-10-29T04:40:06.329Z,28.77
2017-10-29T04:42:34.511Z,33.30
2017-10-29T04:45:02.983Z,28.40
2017-10-29T04:47:32.966Z,42.83
2017-10-29T04:50:00.377Z,23.07
2017-10-29T04:52:27.782Z,20.50
2017-10-29T04:54:55.204Z,30.00
2017-10-29T04:57:22.623Z,44.47
2017-10-29T04:59:50.806Z,33.57
2017-10-29T05:02:18.296Z,22.70
2017-10-29T05:04:45.700Z,38.70
2017-10-29T05:07:13.896Z,33.30
2017-10-29T05:09:42.584Z,40.77
2017-10-29T05:12:10.019Z,43.70
2017-10-29T05:14:38.197Z,38.53
2017-10-29T05:17:06.376Z,27.43
2017-10-29T05:19:34.543Z,31.07
2017-10-29T05:22:03.655Z,36.00
2017-10-29T05:24:31.076Z,43.53
2017-10-29T05:26:58.497Z,37.47
2017-10-29T05:29:25.903Z,36.80
2017-10-29T05:31:54.080Z,54.10
2017-10-29T05:34:22.268Z,40.33
2017-10-29T05:36:49.684Z,40.47
2017-10-29T05:39:17.115Z,41.67
2017-10-29T05:41:44.522Z,35.53
2017-10-29T05:44:12.721Z,36.83
2017-10-29T05:46:40.129Z,36.67
2017-10-29T05:49:07.560Z,35.47
2017-10-29T05:51:34.963Z,37.13
2017-10-29T05:54:04.078Z,37.73
2017-10-29T05:56:31.478Z,43.17
2017-10-29T05:58:58.903Z,28.73
2017-10-29T06:01:26.316Z,43.80
2017-10-29T06:03:54.502Z,38.40
2017-10-29T06:06:22.679Z,54.90
2017-10-29T06:08:50.111Z,45.30
2017-10-29T06:11:17.539Z,51.47
2017-10-29T06:13:44.971Z,37.07
2017-10-29T06:16:12.387Z,34.80
2017-10-29T06:18:40.569Z,44.63
2017-10-29T06:21:08.783Z,30.00
2017-10-29T06:23:36.202Z,29.13
2017-10-29T06:26:04.987Z,33.38
2017-10-29T06:28:34.084Z,27.07
2017-10-29T06:31:02.264Z,41.67
2017-10-29T06:33:29.689Z,42.57
2017-10-29T06:35:57.107Z,34.70
2017-10-29T06:38:24.519Z,37.37
2017-10-29T06:40:52.707Z,42.97
2017-10-29T06:43:20.121Z,33.80
2017-10-29T06:45:47.539Z,42.93
2017-10-29T06:48:14.966Z,48.63
2017-10-29T06:50:43.150Z,40.33
2017-10-29T06:53:10.570Z,40.50
2017-10-29T06:55:38.779Z,50.67
2017-10-29T06:58:06.188Z,35.67
2017-10-29T07:00:33.603Z,48.20
2017-10-29T07:03:01.038Z,38.40
2017-10-29T07:05:29.218Z,32.83
2017-10-29T07:07:56.651Z,42.70
2017-10-29T07:10:24.842Z,44.77
2017-10-29T07:12:53.025Z,42.07
2017-10-29T07:15:20.440Z,46.53
2017-10-29T07:17:47.972Z,46.80
2017-10-29T07:20:15.403Z,35.17
2017-10-29T07:22:42.810Z,39.33
2017-10-29T07:25:10.239Z,30.33
2017-10-29T07:27:38.685Z,35.33
2017-10-29T07:30:06.155Z,27.83
2017-10-29T07:32:33.584Z,31.57
2017-10-29T07:35:01.787Z,49.10
2017-10-29T07:37:29.215Z,23.43
2017-10-29T07:39:57.455Z,24.10
2017-10-29T07:42:24.871Z,33.83
2017-10-29T07:44:52.308Z,56.77
2017-10-29T07:47:20.488Z,29.80
2017-10-29T07:49:47.905Z,48.93
2017-10-29T07:52:15.325Z,31.83
2017-10-29T07:54:42.755Z,25.80
2017-10-29T07:57:10.177Z,26.30
2017-10-29T07:59:39.096Z,27.80
2017-10-29T08:02:06.577Z,43.57
2017-10-29T08:04:34.009Z,41.87
2017-10-29T08:07:02.313Z,41.93
2017-10-29T08:09:29.695Z,43.30
2017-10-29T08:11:57.128Z,31.40
2017-10-29T08:14:24.576Z,51.63
2017-10-29T08:16:52.008Z,36.40
2017-10-29T08:19:19.422Z,61.20
2017-10-29T08:21:46.860Z,46.90
2017-10-29T08:24:14.277Z,47.63
2017-10-29T08:26:41.683Z,43.23
2017-10-29T08:29:09.114Z,43.67
2017-10-29T08:31:37.513Z,56.28
2017-10-29T08:34:04.938Z,35.83
2017-10-29T08:36:32.354Z,33.63
2017-10-29T08:38:59.768Z,38.30
2017-10-29T08:41:27.177Z,43.57
2017-10-29T08:43:55.395Z,44.27
2017-10-29T08:46:23.358Z,39.70
2017-10-29T08:48:50.751Z,36.97
2017-10-29T08:51:19.083Z,38.03
2017-10-29T08:53:46.506Z,36.77
2017-10-29T08:56:14.693Z,31.73
2017-10-29T08:58:42.171Z,41.30
2017-10-29T09:01:09.631Z,35.83
2017-10-29T09:03:38.187Z,36.63
2017-10-29T09:06:05.607Z,35.30
2017-10-29T09:08:33.037Z,36.67
2017-10-29T09:11:00.451Z,30.23
2017-10-29T09:13:28.802Z,33.87
2017-10-29T09:15:56.235Z,30.53
2017-10-29T09:18:23.671Z,28.73
2017-10-29T09:20:51.099Z,33.93
2017-10-29T09:23:19.277Z,42.83
2017-10-29T09:25:46.704Z,28.77
2017-10-29T09:28:14.131Z,27.97
2017-10-29T09:30:41.673Z,27.17
2017-10-29T09:33:09.130Z,39.30
2017-10-29T09:35:36.555Z,24.87
2017-10-29T09:38:04.742Z,34.97
2017-10-29T09:40:32.143Z,34.73
2017-10-29T09:42:59.569Z,30.27
2017-10-29T09:45:26.974Z,22.37
2017-10-29T09:47:54.395Z,36.63
2017-10-29T09:50:21.814Z,35.63
2017-10-29T09:52:49.232Z,35.37
2017-10-29T09:55:17.480Z,29.47
2017-10-29T09:57:44.923Z,30.83
2017-10-29T10:00:12.330Z,36.03
2017-10-29T10:02:40.528Z,39.13
2017-10-29T10:05:09.411Z,41.60
2017-10-29T10:07:38.519Z,28.97
2017-10-29T10:10:06.834Z,37.23
2017-10-29T10:12:34.244Z,41.23
2017-10-29T10:15:01.659Z,28.60
2017-10-29T10:17:30.590Z,30.43
2017-10-29T10:19:58.007Z,22.70
2017-10-29T10:22:25.427Z,32.73
2017-10-29T10:24:52.889Z,35.87
2017-10-29T10:27:20.296Z,29.37
2017-10-29T10:29:48.474Z,23.53
2017-10-29T10:32:16.664Z,21.80
2017-10-29T10:34:44.082Z,30.97
2017-10-29T10:37:13.011Z,27.67
2017-10-29T10:39:40.427Z,25.30
2017-10-29T10:42:07.854Z,17.33
2017-10-29T10:44:35.316Z,22.67
2017-10-29T10:47:02.831Z,30.17
2017-10-29T10:49:31.013Z,32.03
2017-10-29T10:51:58.431Z,31.47
2017-10-29T10:54:26.572Z,41.23
2017-10-29T10:56:54.962Z,30.60
2017-10-29T10:59:22.498Z,28.67
2017-10-29T11:01:49.974Z,31.90
2017-10-29T11:04:17.378Z,31.50
2017-10-29T11:06:45.586Z,22.47
2017-10-29T11:09:12.998Z,35.33
2017-10-29T11:11:41.179Z,22.60
2017-10-29T11:14:10.311Z,27.77
2017-10-29T11:16:37.732Z,25.70
2017-10-29T11:19:05.916Z,28.80
2017-10-29T11:21:34.107Z,26.63
2017-10-29T11:24:02.435Z,27.27
2017-10-29T11:26:29.856Z,28.83
2017-10-29T11:28:57.281Z,27.20
2017-10-29T11:31:24.703Z,31.97
2017-10-29T11:33:52.113Z,28.93
2017-10-29T11:36:19.578Z,28.30
2017-10-29T11:38:46.995Z,23.97
2017-10-29T11:41:15.190Z,24.90
2017-10-29T11:43:42.612Z,23.40
2017-10-29T11:46:11.406Z,26.13
2017-10-29T11:48:39.596Z,31.62
2017-10-29T11:51:07.068Z,17.80
2017-10-29T11:53:34.484Z,32.10
2017-10-29T11:56:02.661Z,22.83
2017-10-29T11:58:30.851Z,38.67
2017-10-29T12:00:59.022Z,31.10
2017-10-29T12:03:26.499Z,43.30
2017-10-29T12:05:53.911Z,26.33
2017-10-29T12:08:21.426Z,24.17
2017-10-29T12:10:48.831Z,34.57
2017-10-29T12:13:16.262Z,32.03
2017-10-29T12:15:43.678Z,23.07
2017-10-29T12:18:12.129Z,16.35
2017-10-29T12:20:41.261Z,24.17
2017-10-29T12:23:08.658Z,16.63
2017-10-29T12:25:37.578Z,28.13
2017-10-29T12:28:05.004Z,25.50
2017-10-29T12:30:32.435Z,25.67
2017-10-29T12:32:59.859Z,26.37
2017-10-29T12:35:27.265Z,26.63
2017-10-29T12:37:54.707Z,25.40
2017-10-29T12:40:22.119Z,26.30
2017-10-29T12:42:49.557Z,30.12
2017-10-29T12:45:17.063Z,40.00
2017-10-29T12:47:44.476Z,28.73
2017-10-29T12:50:12.767Z,23.52
2017-10-29T12:52:40.180Z,26.77
2017-10-29T12:55:07.591Z,24.07
2017-10-29T12:57:35.832Z,26.43
2017-10-29T13:00:04.011Z,28.80
2017-10-29T13:02:32.213Z,24.87
2017-10-29T13:05:00.121Z,29.03
2017-10-29T13:07:27.556Z,19.07
2017-10-29T13:09:55.644Z,26.73
2017-10-29T13:12:23.267Z,24.27
2017-10-29T13:14:50.687Z,80.50
2017-10-29T13:17:18.886Z,52.30
2017-10-29T13:19:47.151Z,17.17
2017-10-29T13:22:15.359Z,17.20
2017-10-29T13:24:43.609Z,15.90
2017-10-29T13:27:11.046Z,20.10
2017-10-29T13:29:39.231Z,12.20
2017-10-29T13:32:07.413Z,14.70
2017-10-29T13:34:34.823Z,16.43
2017-10-29T13:37:02.231Z,12.50
2017-10-29T13:39:29.651Z,14.67
2017-10-29T13:41:57.064Z,12.20
2017-10-29T13:44:24.480Z,18.60
2017-10-29T13:46:52.678Z,16.10
2017-10-29T13:51:54.822Z,7.68
2017-10-29T13:54:23.010Z,8.67
2017-10-29T13:56:51.180Z,10.80
2017-10-29T13:59:19.382Z,14.03
2017-10-29T14:01:46.838Z,9.53
2017-10-29T14:04:14.273Z,9.13
2017-10-29T14:06:42.438Z,13.67
2017-10-29T14:09:10.629Z,15.93
2017-10-29T14:11:38.063Z,23.13
2017-10-29T14:14:05.481Z,12.70
2017-10-29T14:16:32.906Z,10.93
2017-10-29T14:19:00.332Z,17.37
2017-10-29T14:21:28.505Z,24.93
2017-10-29T14:23:56.704Z,14.53
2017-10-29T14:26:24.136Z,19.13
2017-10-29T14:28:52.333Z,16.50
2017-10-29T14:31:19.768Z,22.70
2017-10-29T14:33:47.167Z,19.33
2017-10-29T14:36:14.609Z,14.77
2017-10-29T14:38:42.007Z,8.90
2017-10-29T14:41:09.539Z,12.80
2017-10-29T14:43:36.967Z,16.60
2017-10-29T14:46:04.376Z,11.67
2017-10-29T14:48:31.787Z,23.23
2017-10-29T14:50:59.253Z,23.83
2017-10-29T14:53:26.678Z,13.53
2017-10-29T14:55:54.117Z,15.33
2017-10-29T14:58:21.521Z,15.77
2017-10-29T15:00:49.056Z,19.67
2017-10-29T15:03:16.544Z,16.40
2017-10-29T15:05:44.891Z,17.93
2017-10-29T15:08:12.376Z,25.13
2017-10-29T15:10:39.802Z,15.63
2017-10-29T15:13:07.974Z,17.23
2017-10-29T15:15:36.220Z,11.80
2017-10-29T15:18:03.634Z,22.20
2017-10-29T15:20:31.120Z,14.57
2017-10-29T15:22:58.537Z,16.90
2017-10-29T15:25:25.948Z,19.87
2017-10-29T15:27:53.552Z,15.53
2017-10-29T15:30:20.973Z,14.03
2017-10-29T15:32:48.453Z,18.77
2017-10-29T15:35:16.651Z,14.17
2017-10-29T15:37:44.067Z,10.73
2017-10-29T15:40:12.268Z,22.77
2017-10-29T15:42:39.687Z,23.13
2017-10-29T15:45:07.871Z,17.03
2017-10-29T15:47:36.063Z,18.97
2017-10-29T15:50:03.484Z,23.60
2017-10-29T15:52:31.692Z,15.57
2017-10-29T15:54:59.859Z,26.00
2017-10-29T15:57:27.266Z,27.85
2017-10-29T15:59:54.696Z,24.00
2017-10-29T16:02:22.193Z,22.57
2017-10-29T16:04:49.615Z,26.23
2017-10-29T16:07:17.042Z,19.80
2017-10-29T16:09:44.447Z,23.80
2017-10-29T16:12:11.884Z,34.00
2017-10-29T16:14:39.322Z,23.63
2017-10-29T16:17:06.783Z,23.57
2017-10-29T16:19:34.551Z,30.03
2017-10-29T16:22:01.960Z,21.20
2017-10-29T16:24:30.164Z,30.50
2017-10-29T16:26:57.642Z,30.27
2017-10-29T16:29:25.118Z,20.47
2017-10-29T16:31:52.543Z,26.83
2017-10-29T16:34:20.007Z,30.77
2017-10-29T16:36:47.414Z,31.97
2017-10-29T16:39:14.915Z,31.90
2017-10-29T16:41:42.389Z,39.83
2017-10-29T16:44:09.800Z,30.83
2017-10-29T16:46:37.997Z,30.97
2017-10-29T16:49:05.414Z,44.70
2017-10-29T16:51:32.805Z,29.57
2017-10-29T16:54:00.280Z,32.60
2017-10-29T16:56:27.699Z,36.93
2017-10-29T16:58:55.911Z,24.43
2017-10-29T17:01:23.333Z,27.50
2017-10-29T17:03:51.534Z,26.07
2017-10-29T17:06:18.933Z,32.60
2017-10-29T17:08:47.003Z,29.60
2017-10-29T17:11:14.428Z,44.23
2017-10-29T17:13:41.823Z,24.73
2017-10-29T17:16:09.246Z,48.57
2017-10-29T17:18:36.658Z,37.90
2017-10-29T17:21:04.109Z,33.25
2017-10-29T17:23:32.270Z,31.50
2017-10-29T17:26:00.447Z,30.37
2017-10-29T17:28:28.621Z,30.13
2017-10-29T17:30:57.138Z,31.30
2017-10-29T17:33:24.527Z,34.47
2017-10-29T17:35:51.959Z,37.90
2017-10-29T17:38:19.354Z,27.40
2017-10-29T17:40:48.274Z,25.53
2017-10-29T17:43:15.695Z,45.07
2017-10-29T17:45:43.136Z,33.20
2017-10-29T17:48:12.039Z,51.67
2017-10-29T17:50:39.435Z,39.43
2017-10-29T17:53:06.842Z,38.17
2017-10-29T17:55:34.278Z,31.77
2017-10-29T17:58:01.707Z,30.17
2017-10-29T18:00:29.118Z,33.83
2017-10-29T18:02:56.606Z,21.83
2017-10-29T18:05:24.063Z,25.07
2017-10-29T18:07:52.256Z,35.03
2017-10-29T18:10:19.667Z,30.67
2017-10-29T18:12:48.671Z,27.20
2017-10-29T18:15:18.301Z,33.03
2017-10-29T18:17:45.718Z,24.83
2017-10-29T18:20:13.143Z,37.13
2017-10-29T18:22:40.561Z,31.73
2017-10-29T18:25:08.811Z,31.33
2017-10-29T18:27:36.242Z,30.40
2017-10-29T18:30:03.659Z,22.50
2017-10-29T18:32:31.088Z,45.60
2017-10-29T18:34:59.276Z,26.15
2017-10-29T18:37:26.707Z,35.27
2017-10-29T18:39:54.119Z,27.97
2017-10-29T18:42:21.537Z,50.67
2017-10-29T18:44:49.719Z,33.47
2017-10-29T18:47:18.835Z,40.73
2017-10-29T18:49:46.302Z,21.30
2017-10-29T18:52:13.739Z,34.00
2017-10-29T18:54:41.126Z,28.23
2017-10-29T18:57:08.535Z,26.47
2017-10-29T18:59:35.947Z,35.97
2017-10-29T19:02:03.412Z,31.30
2017-10-29T19:04:30.846Z,32.70
2017-10-29T19:06:58.254Z,32.07
2017-10-29T19:09:26.438Z,32.70
2017-10-29T19:11:53.871Z,37.73
2017-10-29T19:14:22.049Z,32.87
2017-10-29T19:16:50.228Z,40.47
2017-10-29T19:19:19.333Z,22.83
2017-10-29T19:21:47.511Z,21.93
2017-10-29T19:24:14.935Z,30.50
2017-10-29T19:26:43.849Z,27.33
2017-10-29T19:29:12.040Z,24.97
2017-10-29T19:31:39.451Z,28.47
2017-10-29T19:34:06.873Z,43.23
2017-10-29T19:36:34.283Z,31.17
2017-10-29T19:39:02.468Z,40.80
2017-10-29T19:41:31.290Z,42.30
2017-10-29T19:43:58.710Z,29.27
2017-10-29T19:46:26.953Z,33.77
2017-10-29T19:48:54.359Z,35.77
2017-10-29T19:51:21.853Z,28.23
2017-10-29T19:53:50.067Z,30.73
2017-10-29T19:56:18.256Z,40.13
2017-10-29T19:58:45.663Z,30.90
2017-10-29T20:01:13.071Z,31.77
2017-10-29T20:03:40.496Z,27.13
2017-10-29T20:06:08.673Z,52.67
2017-10-29T20:08:36.855Z,36.70
2017-10-29T20:11:05.040Z,26.33
2017-10-29T20:13:32.455Z,29.90
2017-10-29T20:15:59.868Z,26.73
2017-10-29T20:18:27.283Z,27.50
2017-10-29T20:20:55.465Z,35.13
2017-10-29T20:23:23.659Z,30.10
2017-10-29T20:25:51.088Z,21.07
2017-10-29T20:28:20.195Z,27.00
2017-10-29T20:30:48.374Z,22.67
2017-10-29T20:33:15.793Z,35.23
2017-10-29T20:35:43.212Z,18.43
2017-10-29T20:38:10.635Z,24.50
2017-10-29T20:40:38.050Z,28.23
2017-10-29T20:43:05.460Z,36.70
2017-10-29T20:45:32.876Z,24.63
2017-10-29T20:48:00.305Z,26.53
2017-10-29T20:50:27.705Z,21.17
2017-10-29T20:52:55.886Z,21.60
2017-10-29T20:55:24.441Z,23.90
2017-10-29T20:57:51.842Z,33.03
2017-10-29T21:00:20.178Z,18.80
2017-10-29T21:02:47.596Z,30.70
2017-10-29T21:05:15.036Z,28.03
2017-10-29T21:07:42.496Z,30.20
2017-10-29T21:10:09.956Z,24.77
2017-10-29T21:12:37.347Z,25.87
2017-10-29T21:15:04.804Z,23.57
2017-10-29T21:17:32.251Z,27.77
2017-10-29T21:19:59.728Z,24.77
2017-10-29T21:22:27.136Z,27.73
2017-10-29T21:24:54.556Z,25.23
2017-10-29T21:27:22.735Z,27.50
2017-10-29T21:29:50.847Z,23.62
2017-10-29T21:32:18.290Z,29.97
2017-10-29T21:34:45.727Z,18.27
2017-10-29T21:37:13.950Z,32.87
2017-10-29T21:39:41.406Z,21.87
2017-10-29T21:42:08.859Z,23.87
2017-10-29T21:44:36.291Z,20.00
2017-10-29T21:47:03.747Z,28.27
2017-10-29T21:49:31.179Z,16.13
2017-10-29T21:51:58.635Z,16.20
2017-10-29T21:54:26.864Z,27.90
2017-10-29T21:56:54.295Z,26.57
2017-10-29T21:59:21.707Z,22.03
2017-10-29T22:01:49.965Z,28.27
2017-10-29T22:04:17.431Z,14.93
2017-10-29T22:06:45.028Z,30.60
2017-10-29T22:09:13.232Z,19.43
2017-10-29T22:11:41.437Z,23.60
2017-10-29T22:14:08.867Z,24.77
2017-10-29T22:16:36.341Z,25.50
2017-10-29T22:19:03.799Z,29.50
2017-10-29T22:21:31.310Z,20.93
2017-10-29T22:23:58.743Z,17.20
2017-10-29T22:26:27.027Z,26.87
2017-10-29T22:28:55.271Z,19.47
2017-10-29T22:31:22.671Z,21.10
2017-10-29T22:33:50.078Z,20.90
2017-10-29T22:36:17.511Z,27.90
2017-10-29T22:38:44.931Z,25.27
2017-10-29T22:41:12.342Z,20.90
2017-10-29T22:43:39.756Z,22.53
2017-10-29T22:46:07.195Z,17.00
2017-10-29T22:48:35.353Z,26.83
2017-10-29T22:51:04.523Z,20.30
2017-10-29T22:53:31.945Z,18.23
2017-10-29T22:55:59.363Z,24.70
2017-10-29T22:58:27.535Z,23.27
2017-10-29T23:00:55.716Z,18.40
2017-10-29T23:03:23.913Z,20.97
2017-10-29T23:05:54.755Z,18.37
2017-10-29T23:08:37.982Z,21.10
2017-10-29T23:11:05.421Z,26.30
2017-10-29T23:13:32.831Z,22.23
2017-10-29T23:16:01.213Z,22.53
2017-10-29T23:18:28.628Z,21.93
2017-10-29T23:20:56.040Z,24.70
2017-10-29T23:23:24.229Z,26.70
2017-10-29T23:25:52.592Z,23.63
2017-10-29T23:28:19.982Z,26.73
2017-10-29T23:30:47.395Z,28.13
2017-10-29T23:33:14.814Z,27.70
2017-10-29T23:35:42.223Z,27.37
2017-10-29T23:38:10.412Z,26.20
2017-10-29T23:40:37.832Z,22.23
2017-10-29T23:43:05.247Z,23.70
2017-10-29T23:45:32.672Z,21.73
2017-10-29T23:48:00.086Z,20.40
2017-10-29T23:50:27.501Z,28.77
2017-10-29T23:52:54.923Z,24.80
2017-10-29T23:55:23.447Z,23.97
2017-10-29T23:57:50.863Z,34.40
